Time;durP1;ratioP1;P1;durP2;ratioP2;P2;SDS_P1;SDS_P2;PMS_P1;PMS_P2;Temp;Humidity;BMP_temperature;BMP_pressure;BME280_temperature;BME280_humidity;BME280_pressure;Samples;Min_cycle;Max_cycle;Signal;HPM_P1;HPM_P2
2022/07/17 00:01:26;;;;;;;3.00;1.70;;;;;;;16.93;nan;101388.50;5030490;28;20388;-67
2022/07/17 00:03:52;;;;;;;2.25;1.60;;;;;;;16.95;nan;101397.16;5030752;28;20091;-68
2022/07/17 00:06:17;;;;;;;3.45;1.60;;;;;;;17.01;nan;101400.97;5031098;28;20363;-67
2022/07/17 00:08:42;;;;;;;1.98;1.48;;;;;;;17.02;nan;101400.00;5031670;28;20030;-69
2022/07/17 00:11:08;;;;;;;3.60;1.65;;;;;;;17.07;nan;101399.47;5030650;28;20060;-67
2022/07/17 00:13:33;;;;;;;4.72;1.83;;;;;;;17.09;nan;101395.63;5031480;28;20049;-67
2022/07/17 00:15:58;;;;;;;3.13;1.70;;;;;;;17.07;nan;101391.47;5013304;28;20025;-67
2022/07/17 00:18:24;;;;;;;2.78;1.63;;;;;;;17.03;nan;101387.47;5030970;28;20183;-67
2022/07/17 00:20:51;;;;;;;3.80;1.58;;;;;;;16.96;nan;101396.16;5030744;28;20420;-67
2022/07/17 00:23:17;;;;;;;2.40;1.50;;;;;;;16.86;nan;101392.03;5030786;28;20167;-67
2022/07/17 00:25:43;;;;;;;2.20;1.35;;;;;;;16.75;nan;101380.66;5011652;28;20073;-68
2022/07/17 00:28:10;;;;;;;2.47;1.50;;;;;;;16.64;nan;101389.06;4993771;28;20026;-67
2022/07/17 00:30:37;;;;;;;3.33;1.48;;;;;;;16.60;nan;101379.69;5027938;28;20476;-67
2022/07/17 00:33:03;;;;;;;2.88;1.50;;;;;;;16.50;nan;101382.56;5007594;28;20045;-68
2022/07/17 00:35:29;;;;;;;4.13;2.00;;;;;;;16.51;nan;101381.53;4996506;28;20436;-68
2022/07/17 00:37:55;;;;;;;4.25;1.63;;;;;;;16.51;nan;101381.53;5030068;28;20037;-67
2022/07/17 00:40:23;;;;;;;3.33;1.65;;;;;;;16.54;nan;101372.34;5012084;28;20055;-65
2022/07/17 00:42:48;;;;;;;3.78;1.67;;;;;;;16.52;nan;101383.22;5011992;28;20041;-65
2022/07/17 00:45:15;;;;;;;3.35;1.45;;;;;;;16.49;nan;101386.25;4994206;28;20072;-65
2022/07/17 00:48:01;;;;;;;2.60;1.40;;;;;;;16.45;nan;101394.75;5027500;28;20040;-65
2022/07/17 00:50:30;;;;;;;2.20;1.50;;;;;;;16.39;nan;101384.75;5009223;28;20033;-65
2022/07/17 00:52:56;;;;;;;2.40;1.63;;;;;;;16.30;nan;101387.44;5027241;28;20037;-65
2022/07/17 00:55:23;;;;;;;2.40;1.45;;;;;;;16.22;nan;101384.75;4994449;28;20073;-65
2022/07/17 00:57:49;;;;;;;2.00;1.45;;;;;;;16.14;nan;101387.44;5014190;28;20033;-65
2022/07/17 01:00:16;;;;;;;2.35;1.30;;;;;;;16.10;nan;101380.75;5009767;28;20497;-65
2022/07/17 01:02:47;;;;;;;2.05;1.23;;;;;;;16.03;nan;101377.09;5027084;28;20396;-65
2022/07/17 01:05:14;;;;;;;2.17;1.27;;;;;;;15.97;nan;101375.09;5027588;28;20425;-65
2022/07/17 01:07:40;;;;;;;2.35;1.50;;;;;;;15.94;nan;101370.91;5027907;28;20044;-65
2022/07/17 01:10:06;;;;;;;2.28;1.48;;;;;;;15.91;nan;101368.59;5010332;28;20037;-68
2022/07/17 01:12:32;;;;;;;1.83;1.33;;;;;;;15.82;nan;101370.41;5027179;28;20040;-67
2022/07/17 01:14:59;;;;;;;2.88;1.70;;;;;;;15.76;nan;101367.59;5026885;28;20447;-68
2022/07/17 01:17:25;;;;;;;2.85;1.50;;;;;;;15.73;nan;101375.91;5011053;28;20037;-67
2022/07/17 01:19:51;;;;;;;2.65;1.42;;;;;;;15.69;nan;101378.03;5016420;28;20044;-67
2022/07/17 01:22:16;;;;;;;2.80;1.60;;;;;;;15.67;nan;101374.72;5012109;28;20410;-70
2022/07/17 01:24:41;;;;;;;2.88;1.52;;;;;;;15.63;nan;101376.84;4992959;28;20038;-68
2022/07/17 01:27:07;;;;;;;4.38;1.98;;;;;;;15.61;nan;101378.88;4998876;28;20140;-67
2022/07/17 01:29:35;;;;;;;4.25;1.60;;;;;;;15.64;nan;101381.19;5027011;28;20041;-67
2022/07/17 01:32:00;;;;;;;2.60;1.50;;;;;;;15.65;nan;101376.69;5028302;28;20072;-67
2022/07/17 01:34:26;;;;;;;3.05;1.65;;;;;;;15.64;nan;101391.03;5026065;28;20073;-67
2022/07/17 01:36:51;;;;;;;2.40;1.50;;;;;;;15.69;nan;101386.88;5020783;28;20026;-65
2022/07/17 01:39:16;;;;;;;2.57;1.63;;;;;;;15.70;nan;101388.56;5007969;28;20034;-65
2022/07/17 01:41:41;;;;;;;2.50;1.52;;;;;;;15.74;nan;101375.75;5007174;28;20289;-65
2022/07/17 01:44:08;;;;;;;2.60;1.50;;;;;;;15.82;nan;101388.25;5007385;28;20095;-66
2022/07/17 01:46:33;;;;;;;3.15;1.50;;;;;;;15.87;nan;101386.78;5027669;28;20492;-65
2022/07/17 01:49:00;;;;;;;3.35;1.58;;;;;;;15.89;nan;101392.75;5027449;28;20068;-65
2022/07/17 01:51:26;;;;;;;3.25;1.50;;;;;;;15.91;nan;101392.59;5026123;28;20034;-65
2022/07/17 01:53:52;;;;;;;2.78;1.63;;;;;;;15.92;nan;101395.09;5027761;28;20461;-65
2022/07/17 01:56:17;;;;;;;4.32;1.50;;;;;;;15.89;nan;101390.09;5009947;28;20132;-65
2022/07/17 01:58:42;;;;;;;3.15;1.70;;;;;;;15.90;nan;101393.59;5028729;28;20111;-65
2022/07/17 02:01:08;;;;;;;2.75;1.42;;;;;;;15.96;nan;101389.44;5025071;28;20509;-65
2022/07/17 02:03:33;;;;;;;2.60;1.50;;;;;;;16.01;nan;101379.91;5027223;28;20424;-65
2022/07/17 02:05:58;;;;;;;2.93;1.63;;;;;;;16.01;nan;101377.25;5027473;28;20053;-65
2022/07/17 02:08:23;;;;;;;2.57;1.57;;;;;;;16.01;nan;101381.75;5026067;28;20320;-65
2022/07/17 02:10:49;;;;;;;2.00;1.30;;;;;;;15.98;nan;101374.94;5026979;28;20475;-65
2022/07/17 02:13:14;;;;;;;2.35;1.48;;;;;;;15.94;nan;101370.91;5016586;28;20036;-65
2022/07/17 02:15:40;;;;;;;4.55;1.63;;;;;;;15.95;nan;101375.28;5019848;28;20042;-65
2022/07/17 02:18:05;;;;;;;2.33;1.33;;;;;;;15.95;nan;101367.28;5009430;28;20131;-66
2022/07/17 02:20:30;;;;;;;3.55;1.40;;;;;;;15.91;nan;101376.59;5004582;28;20042;-65
2022/07/17 02:22:55;;;;;;;2.47;1.40;;;;;;;15.86;nan;101371.75;5007113;28;20048;-65
2022/07/17 02:25:21;;;;;;;2.07;1.13;;;;;;;15.83;nan;101374.75;5006193;28;20131;-65
2022/07/17 02:27:46;;;;;;;3.13;1.35;;;;;;;15.78;nan;101366.44;5006587;28;20301;-65
2022/07/17 02:30:14;;;;;;;2.42;1.30;;;;;;;15.77;nan;101370.06;5008034;28;20123;-65
2022/07/17 02:32:41;;;;;;;3.15;1.40;;;;;;;15.76;nan;101373.75;5026480;28;20502;-65
2022/07/17 02:35:08;;;;;;;2.35;1.30;;;;;;;15.76;nan;101371.09;5025369;28;20041;-65
2022/07/17 02:37:34;;;;;;;1.92;1.10;;;;;;;15.71;nan;101370.75;5025904;28;20680;-65
2022/07/17 02:39:59;;;;;;;1.92;1.27;;;;;;;15.64;nan;101375.03;5026692;28;20112;-65
2022/07/17 02:42:26;;;;;;;2.30;1.25;;;;;;;15.54;nan;101377.84;5024140;28;20057;-65
2022/07/17 02:44:52;;;;;;;2.45;1.23;;;;;;;15.45;nan;101382.31;5027236;28;20025;-65
2022/07/17 02:47:30;;;;;;;1.80;1.20;;;;;;;15.37;nan;101386.78;5028645;28;20036;-66
2022/07/17 02:49:56;;;;;;;2.45;1.00;;;;;;;15.31;nan;101377.63;5027626;28;20049;-67
2022/07/17 02:52:21;;;;;;;1.92;0.98;;;;;;;15.25;nan;101381.78;5007574;28;20429;-68
2022/07/17 02:54:47;;;;;;;2.72;1.00;;;;;;;15.23;nan;101378.44;5009163;28;20060;-67
2022/07/17 02:57:13;;;;;;;3.85;1.10;;;;;;;15.25;nan;101384.44;5025183;28;20038;-69
2022/07/17 02:59:38;;;;;;;1.58;0.90;;;;;;;15.28;nan;101380.63;5026275;28;20275;-68
2022/07/17 03:02:04;;;;;;;1.98;1.00;;;;;;;15.34;nan;101369.28;5029449;28;20331;-67
2022/07/17 03:04:29;;;;;;;2.60;1.30;;;;;;;15.38;nan;101378.63;5011968;28;20152;-69
2022/07/17 03:06:54;;;;;;;2.33;1.20;;;;;;;15.47;nan;101371.50;5031061;28;20112;-67
2022/07/17 03:09:20;;;;;;;1.75;0.98;;;;;;;15.53;nan;101368.19;5030557;28;20036;-65
2022/07/17 03:11:45;;;;;;;2.55;1.15;;;;;;;15.54;nan;101367.19;5030815;28;20057;-65
2022/07/17 03:14:10;;;;;;;2.58;1.45;;;;;;;15.54;nan;101366.34;5029212;28;20034;-65
2022/07/17 03:16:36;;;;;;;2.22;1.10;;;;;;;15.48;nan;101366.00;5030134;28;20527;-65
2022/07/17 03:19:01;;;;;;;3.80;1.08;;;;;;;15.48;nan;101360.66;5030042;28;20327;-65
2022/07/17 03:21:27;;;;;;;3.10;1.25;;;;;;;15.46;nan;101356.50;5029400;28;20542;-65
2022/07/17 03:23:52;;;;;;;4.03;1.27;;;;;;;15.49;nan;101364.16;5030806;28;20038;-66
2022/07/17 03:26:17;;;;;;;3.10;1.13;;;;;;;15.56;nan;101356.34;5029132;28;20045;-65
2022/07/17 03:28:42;;;;;;;1.98;1.00;;;;;;;15.59;nan;101359.53;5031761;28;20046;-65
2022/07/17 03:31:08;;;;;;;3.17;1.10;;;;;;;15.60;nan;101355.03;5028663;28;20398;-65
2022/07/17 03:33:33;;;;;;;2.63;1.00;;;;;;;15.56;nan;101356.34;5029107;28;20292;-65
2022/07/17 03:35:58;;;;;;;2.25;1.00;;;;;;;15.53;nan;101362.84;5030337;28;20489;-66
2022/07/17 03:38:23;;;;;;;3.60;0.98;;;;;;;15.47;nan;101364.34;5029975;28;20049;-65
2022/07/17 03:40:49;;;;;;;3.47;1.10;;;;;;;15.39;nan;101366.97;5029909;28;20041;-65
2022/07/17 03:43:14;;;;;;;2.58;1.10;;;;;;;15.35;nan;101370.97;5019738;28;20413;-65
2022/07/17 03:45:40;;;;;;;1.98;1.20;;;;;;;15.33;nan;101367.63;5022453;28;20520;-65
2022/07/17 03:48:05;;;;;;;2.22;1.10;;;;;;;15.30;nan;101373.28;5029877;28;20070;-68
2022/07/17 03:50:30;;;;;;;1.80;1.10;;;;;;;15.26;nan;101367.44;5027841;28;20036;-68
2022/07/17 03:52:56;;;;;;;3.03;1.13;;;;;;;15.25;nan;101373.78;5028901;28;20030;-69
2022/07/17 03:55:21;;;;;;;2.55;1.10;;;;;;;15.24;nan;101379.25;5019693;28;20233;-68
2022/07/17 03:57:46;;;;;;;2.67;1.10;;;;;;;15.23;nan;101366.91;5023565;28;20034;-68
2022/07/17 04:00:12;;;;;;;1.75;1.00;;;;;;;15.20;nan;101373.41;5028497;28;20041;-69
2022/07/17 04:02:37;;;;;;;1.67;0.90;;;;;;;15.19;nan;101376.25;5028081;28;20125;-68
2022/07/17 04:05:03;;;;;;;1.73;0.90;;;;;;;15.20;nan;101378.75;5028933;28;20076;-68
2022/07/17 04:07:28;;;;;;;2.40;1.00;;;;;;;15.19;nan;101381.59;5029123;28;20037;-68
2022/07/17 04:09:56;;;;;;;2.88;1.20;;;;;;;15.25;nan;101381.78;5029043;28;20046;-65
2022/07/17 04:12:21;;;;;;;2.22;0.90;;;;;;;15.31;nan;101390.94;5027818;28;21156;-65
2022/07/17 04:14:47;;;;;;;4.43;1.05;;;;;;;15.34;nan;101393.28;5029444;28;20077;-65
2022/07/17 04:17:12;;;;;;;2.75;1.08;;;;;;;15.40;nan;101391.81;5028145;28;20090;-65
2022/07/17 04:19:37;;;;;;;1.83;0.90;;;;;;;15.56;nan;101393.66;5011532;28;20120;-65
2022/07/17 04:22:03;;;;;;;2.25;1.10;;;;;;;15.66;nan;101395.22;5028614;28;20037;-65
2022/07/17 04:24:28;;;;;;;2.40;1.20;;;;;;;15.81;nan;101406.09;5028569;28;20494;-65
2022/07/17 04:26:53;;;;;;;3.78;1.10;;;;;;;15.90;nan;101399.78;5011611;28;20076;-65
2022/07/17 04:29:18;;;;;;;2.70;0.88;;;;;;;15.96;nan;101410.78;5028344;28;20128;-65
2022/07/17 04:31:44;;;;;;;2.65;1.05;;;;;;;16.03;nan;101412.59;5029029;28;20037;-65
2022/07/17 04:34:09;;;;;;;2.58;1.00;;;;;;;16.09;nan;101400.47;5026975;28;20498;-66
2022/07/17 04:36:35;;;;;;;2.95;1.10;;;;;;;16.12;nan;101402.78;5029023;28;20133;-66
2022/07/17 04:39:00;;;;;;;1.85;0.85;;;;;;;16.16;nan;101396.13;5028073;28;20058;-65
2022/07/17 04:41:25;;;;;;;2.25;1.08;;;;;;;16.24;nan;101392.59;5027182;28;20137;-65
2022/07/17 04:43:50;;;;;;;2.33;0.85;;;;;;;16.26;nan;101406.63;5027624;28;20447;-66
2022/07/17 04:46:16;;;;;;;1.70;0.90;;;;;;;16.22;nan;101403.44;5027247;28;20045;-65
2022/07/17 04:48:41;;;;;;;1.60;0.80;;;;;;;16.23;nan;101401.59;5028153;28;20272;-66
2022/07/17 04:51:06;;;;;;;1.95;0.80;;;;;;;16.20;nan;101413.44;5019212;28;20084;-65
2022/07/17 04:53:31;;;;;;;2.60;1.00;;;;;;;16.18;nan;101410.09;5021493;28;20033;-66
2022/07/17 04:55:57;;;;;;;1.33;0.98;;;;;;;16.15;nan;101405.09;5012958;28;20030;-68
2022/07/17 04:58:22;;;;;;;1.90;1.05;;;;;;;16.13;nan;101415.09;5026426;28;20383;-68
2022/07/17 05:00:47;;;;;;;2.70;1.17;;;;;;;16.08;nan;101412.13;5028316;28;20258;-68
2022/07/17 05:03:13;;;;;;;2.70;0.97;;;;;;;16.02;nan;101418.13;5011003;28;20037;-68
2022/07/17 05:05:40;;;;;;;1.70;1.00;;;;;;;15.96;nan;101421.44;5010087;28;20802;-68
2022/07/17 05:08:05;;;;;;;2.35;1.10;;;;;;;15.94;nan;101418.94;5027663;28;20057;-68
2022/07/17 05:10:30;;;;;;;2.88;1.30;;;;;;;15.89;nan;101427.41;5027233;28;20119;-68
2022/07/17 05:12:56;;;;;;;2.75;1.30;;;;;;;15.91;nan;101438.78;5028394;28;20151;-68
2022/07/17 05:15:21;;;;;;;3.08;1.25;;;;;;;15.89;nan;101431.94;5027466;28;20135;-67
2022/07/17 05:17:46;;;;;;;2.60;1.33;;;;;;;15.87;nan;101431.25;5013343;28;20045;-65
2022/07/17 05:20:12;;;;;;;2.60;1.30;;;;;;;15.81;nan;101430.09;5024101;28;20033;-65
2022/07/17 05:22:37;;;;;;;2.33;1.05;;;;;;;15.82;nan;101439.75;5027434;28;20800;-66
2022/07/17 05:25:03;;;;;;;2.90;1.40;;;;;;;15.81;nan;101435.44;5027993;28;20057;-65
2022/07/17 05:27:28;;;;;;;3.20;1.00;;;;;;;15.84;nan;101435.09;5009791;28;20041;-66
2022/07/17 05:29:54;;;;;;;2.70;1.05;;;;;;;15.91;nan;101440.59;5026959;28;20505;-66
2022/07/17 05:32:19;;;;;;;3.50;1.30;;;;;;;15.96;nan;101445.44;5026408;28;20174;-66
2022/07/17 05:34:45;;;;;;;4.55;1.65;;;;;;;16.02;nan;101442.13;5027751;28;20037;-65
2022/07/17 05:37:10;;;;;;;3.15;1.45;;;;;;;16.07;nan;101439.81;5027696;28;20053;-66
2022/07/17 05:39:35;;;;;;;4.03;1.77;;;;;;;16.11;nan;101443.78;5026990;28;20042;-65
2022/07/17 05:42:01;;;;;;;7.47;1.63;;;;;;;16.19;nan;101441.13;5027980;28;20580;-66
2022/07/17 05:44:26;;;;;;;4.15;2.05;;;;;;;16.33;nan;101455.66;5026573;28;20535;-66
2022/07/17 05:46:51;;;;;;;3.00;1.58;;;;;;;16.53;nan;101443.63;5027674;28;20061;-66
2022/07/17 05:49:17;;;;;;;3.40;1.80;;;;;;;16.82;nan;101452.13;5027466;28;20457;-66
2022/07/17 05:51:42;;;;;;;2.42;1.60;;;;;;;17.20;nan;101454.00;5026765;28;20286;-69
2022/07/17 05:54:07;;;;;;;3.72;1.73;;;;;;;17.56;nan;101450.84;5011343;28;20052;-68
2022/07/17 05:56:32;;;;;;;3.33;1.60;;;;;;;17.95;nan;101447.34;5026259;28;20038;-68
2022/07/17 05:58:57;;;;;;;;;;;;;;;18.38;nan;101460.22;5027095;28;20389;-67
2022/07/17 06:01:23;;;;;;;1.63;1.00;;;;;;;18.76;nan;101453.03;5026793;28;19940;-69
2022/07/17 06:03:48;;;;;;;4.47;1.57;;;;;;;19.09;nan;101458.03;5029527;28;20437;-67
2022/07/17 06:06:13;;;;;;;3.15;1.15;;;;;;;19.36;nan;101456.53;5027901;28;20280;-69
2022/07/17 06:08:38;;;;;;;;;;;;;;;19.63;nan;101449.63;5027790;28;20052;-68
2022/07/17 06:11:04;;;;;;;3.47;1.40;;;;;;;20.04;nan;101457.13;5027144;28;19917;-69
2022/07/17 06:13:29;;;;;;;;;;;;;;;20.50;nan;101463.97;5027964;28;20040;-67
2022/07/17 06:15:56;;;;;;;;;;;;;;;20.82;nan;101462.56;5027189;28;19917;-68
2022/07/17 06:18:21;;;;;;;;;;;;;;;21.10;nan;101465.22;5026551;28;19925;-68
2022/07/17 06:20:46;;;;;;;2.07;1.00;;;;;;;21.29;nan;101469.03;5028063;28;19924;-68
2022/07/17 06:23:11;;;;;;;2.03;1.00;;;;;;;21.83;nan;101465.56;5026495;28;20748;-68
2022/07/17 06:25:36;;;;;;;2.53;0.90;;;;;;;21.98;nan;101467.25;5026624;28;20311;-67
2022/07/17 06:28:02;;;;;;;3.28;1.10;;;;;;;22.46;nan;101475.19;5028332;28;20293;-70
2022/07/17 06:30:27;;;;;;;4.38;1.30;;;;;;;22.84;nan;101486.16;5028523;28;20094;-67
2022/07/17 06:32:52;;;;;;;2.72;1.00;;;;;;;23.02;nan;101482.81;5030311;28;20124;-68
2022/07/17 06:35:18;;;;;;;4.45;1.05;;;;;;;23.11;nan;101484.25;5027452;28;20052;-68
2022/07/17 06:37:43;;;;;;;2.42;1.00;;;;;;;23.31;nan;101486.06;5029037;28;20121;-70
2022/07/17 06:40:08;;;;;;;1.58;0.80;;;;;;;23.91;nan;101477.72;5025202;28;20432;-67
2022/07/17 06:42:34;;;;;;;1.48;0.80;;;;;;;24.29;nan;101474.16;5006777;28;20399;-67
2022/07/17 06:44:59;;;;;;;2.63;0.90;;;;;;;24.57;nan;101487.22;5009566;28;20438;-68
2022/07/17 06:47:25;;;;;;;1.77;0.60;;;;;;;24.99;nan;101482.88;5027816;28;20406;-68
2022/07/17 06:49:50;;;;;;;1.83;0.80;;;;;;;25.15;nan;101475.22;5027015;28;20069;-68
2022/07/17 06:52:15;;;;;;;3.57;1.00;;;;;;;25.37;nan;101475.63;5025342;28;20547;-68
2022/07/17 06:54:40;;;;;;;3.28;1.10;;;;;;;25.50;nan;101480.84;5026839;28;20280;-68
2022/07/17 06:57:06;;;;;;;1.80;0.88;;;;;;;25.75;nan;101471.78;5026425;28;20560;-67
2022/07/17 06:59:31;;;;;;;2.22;0.90;;;;;;;25.82;nan;101477.94;5025633;28;20092;-67
2022/07/17 07:01:56;;;;;;;2.45;0.80;;;;;;;25.81;nan;101473.56;5027639;28;20029;-68
2022/07/17 07:04:22;;;;;;;3.22;0.90;;;;;;;25.79;nan;101475.69;5028399;28;20065;-68
2022/07/17 07:06:47;;;;;;;2.67;1.00;;;;;;;25.78;nan;101474.03;5028768;28;20378;-68
2022/07/17 07:09:12;;;;;;;5.93;1.20;;;;;;;25.73;nan;101472.00;5041789;23;20300;-66
2022/07/17 07:11:38;;;;;;;2.35;0.80;;;;;;;25.83;nan;101469.56;5025077;28;20284;-66
2022/07/17 07:14:04;;;;;;;1.33;0.80;;;;;;;26.00;nan;101472.47;5008616;28;20133;-66
2022/07/17 07:16:29;;;;;;;1.90;0.80;;;;;;;25.98;nan;101466.50;5025211;28;20033;-67
2022/07/17 07:18:55;;;;;;;1.85;0.90;;;;;;;26.25;nan;101466.06;5009626;28;20041;-67
2022/07/17 07:21:20;;;;;;;2.13;0.90;;;;;;;26.58;nan;101478.28;5024716;28;20034;-69
2022/07/17 07:23:45;;;;;;;4.15;0.80;;;;;;;26.92;nan;101465.75;5026295;28;20482;-67
2022/07/17 07:26:11;;;;;;;2.63;0.90;;;;;;;27.36;nan;101462.63;5025920;28;20040;-67
2022/07/17 07:28:36;;;;;;;1.80;1.00;;;;;;;27.76;nan;101459.84;5025382;28;20331;-67
2022/07/17 07:31:01;;;;;;;2.35;0.80;;;;;;;27.87;nan;101458.19;5026258;28;20025;-67
2022/07/17 07:33:27;;;;;;;3.20;0.70;;;;;;;28.02;nan;101450.28;5014009;28;20041;-67
2022/07/17 07:35:52;;;;;;;3.05;1.10;;;;;;;28.28;nan;101454.25;5005337;28;20066;-69
2022/07/17 07:38:17;;;;;;;1.97;0.70;;;;;;;28.28;nan;101448.81;5008423;28;20046;-69
2022/07/17 07:40:43;;;;;;;1.25;0.70;;;;;;;28.33;nan;101437.19;5019973;28;20289;-67
2022/07/17 07:43:08;;;;;;;2.45;0.70;;;;;;;28.67;nan;101445.34;5005998;28;20049;-67
2022/07/17 07:45:34;;;;;;;1.50;0.70;;;;;;;28.90;nan;101447.84;5019271;28;20476;-67
2022/07/17 07:47:59;;;;;;;2.08;0.80;;;;;;;29.27;nan;101446.41;5029097;28;20511;-68
2022/07/17 07:50:25;;;;;;;2.00;0.80;;;;;;;29.56;nan;101445.13;5028508;28;20370;-67
2022/07/17 07:52:51;;;;;;;0.95;0.60;;;;;;;29.84;nan;101444.09;5028749;28;20026;-68
2022/07/17 07:55:17;;;;;;;2.55;0.80;;;;;;;29.88;nan;101441.63;5004484;28;20049;-67
2022/07/17 07:57:42;;;;;;;2.85;1.00;;;;;;;29.85;nan;101437.53;5008703;28;20045;-68
2022/07/17 08:00:10;;;;;;;1.77;0.80;;;;;;;30.03;nan;101439.06;5025352;28;20192;-68
2022/07/17 08:02:36;;;;;;;4.18;0.88;;;;;;;30.29;nan;101441.19;5012991;28;20524;-67
2022/07/17 08:05:01;;;;;;;2.10;0.80;;;;;;;30.25;nan;101441.72;5030333;28;20041;-67
2022/07/17 08:07:28;;;;;;;2.15;0.88;;;;;;;30.49;nan;101446.78;5029246;28;20055;-67
2022/07/17 08:09:53;;;;;;;2.30;0.70;;;;;;;30.88;nan;101451.97;5028817;28;20033;-67
2022/07/17 08:12:19;;;;;;;3.25;1.00;;;;;;;30.86;nan;101446.75;5030704;28;20486;-67
2022/07/17 08:14:44;;;;;;;1.33;0.60;;;;;;;31.13;nan;101448.53;5031243;28;20033;-67
2022/07/17 08:17:10;;;;;;;2.85;0.85;;;;;;;31.47;nan;101457.13;5032077;28;20033;-67
2022/07/17 08:19:35;;;;;;;1.65;0.60;;;;;;;31.68;nan;101452.53;5027602;28;20405;-67
2022/07/17 08:22:00;;;;;;;1.15;0.50;;;;;;;31.87;nan;101450.09;5031554;28;20030;-67
2022/07/17 08:24:25;;;;;;;1.83;0.80;;;;;;;32.07;nan;101448.47;5029952;28;20100;-67
2022/07/17 08:26:51;;;;;;;2.30;0.80;;;;;;;32.01;nan;101449.56;5030919;28;20139;-67
2022/07/17 08:29:16;;;;;;;1.80;0.90;;;;;;;32.14;nan;101443.56;5031312;28;20272;-67
2022/07/17 08:31:42;;;;;;;2.40;0.90;;;;;;;32.54;nan;101434.50;5031842;28;20029;-67
2022/07/17 08:34:07;;;;;;;2.97;0.90;;;;;;;32.75;nan;101437.16;5031701;28;20509;-67
2022/07/17 08:36:33;;;;;;;2.05;0.90;;;;;;;33.00;nan;101439.00;5030898;28;20026;-68
2022/07/17 08:38:58;;;;;;;2.88;0.80;;;;;;;33.24;nan;101435.63;5028619;28;20377;-67
2022/07/17 08:41:24;;;;;;;0.95;0.60;;;;;;;33.57;nan;101432.16;5027782;28;20041;-67
2022/07/17 08:43:50;;;;;;;1.50;0.60;;;;;;;33.80;nan;101424.31;5011912;28;20045;-69
2022/07/17 08:46:16;;;;;;;1.50;0.68;;;;;;;34.31;nan;101428.56;5029086;28;20125;-68
2022/07/17 08:48:45;;;;;;;1.77;0.80;;;;;;;34.54;nan;101438.75;5029078;28;20120;-69
2022/07/17 08:51:11;;;;;;;2.20;0.65;;;;;;;35.10;nan;101440.06;5024226;28;20034;-68
2022/07/17 08:53:37;;;;;;;2.50;0.63;;;;;;;35.40;nan;101443.50;5028739;28;20025;-69
2022/07/17 08:56:03;;;;;;;1.08;0.55;;;;;;;35.64;nan;101446.22;5028522;28;20038;-69
2022/07/17 08:58:29;;;;;;;0.88;0.50;;;;;;;35.83;nan;101443.44;5028158;28;20038;-68
2022/07/17 09:00:54;;;;;;;1.52;0.70;;;;;;;35.71;nan;101449.41;5011298;28;20056;-68
2022/07/17 09:03:21;;;;;;;1.85;0.75;;;;;;;35.52;nan;101444.69;5028514;28;20040;-68
2022/07/17 09:05:46;;;;;;;1.85;0.73;;;;;;;35.83;nan;101440.69;5011505;28;20087;-66
2022/07/17 09:08:20;;;;;;;1.33;0.50;;;;;;;35.89;nan;101444.97;5029843;28;20061;-67
2022/07/17 09:10:48;;;;;;;1.17;0.60;;;;;;;36.17;nan;101443.16;5028141;28;20275;-66
2022/07/17 09:13:26;;;;;;;1.25;0.50;;;;;;;36.21;nan;101430.41;5028785;28;20033;-68
2022/07/17 09:15:54;;;;;;;1.38;0.75;;;;;;;36.59;nan;101434.94;5028049;28;20053;-68
2022/07/17 09:18:20;;;;;;;3.22;0.60;;;;;;;36.85;nan;101430.56;5011313;28;20053;-68
2022/07/17 09:20:54;;;;;;;0.80;0.50;;;;;;;37.39;nan;101417.78;5027788;28;20037;-68
2022/07/17 09:23:21;;;;;;;1.25;0.57;;;;;;;37.62;nan;101426.13;5023928;28;20041;-66
2022/07/17 09:25:49;;;;;;;2.50;0.68;;;;;;;38.04;nan;101418.47;5027323;28;20108;-66
2022/07/17 09:28:16;;;;;;;1.35;0.70;;;;;;;38.03;nan;101409.38;5025964;28;20516;-67
2022/07/17 09:30:45;;;;;;;2.08;0.80;;;;;;;37.73;nan;101418.41;5029542;28;20033;-67
2022/07/17 09:33:19;;;;;;;1.30;0.68;;;;;;;38.13;nan;101410.22;5030226;28;20092;-67
2022/07/17 09:35:51;;;;;;;2.85;0.73;;;;;;;38.17;nan;101401.00;5011742;28;20033;-67
2022/07/17 09:38:38;;;;;;;1.48;0.68;;;;;;;37.87;nan;101410.06;5027329;28;20035;-68
2022/07/17 09:41:09;;;;;;;1.10;0.60;;;;;;;38.33;nan;101400.56;5027710;28;20076;-67
2022/07/17 09:43:44;;;;;;;1.42;0.70;;;;;;;38.56;nan;101401.34;5027472;28;20575;-67
2022/07/17 09:46:12;;;;;;;1.48;0.70;;;;;;;38.51;nan;101395.97;5028628;28;20403;-68
2022/07/17 09:48:47;;;;;;;2.20;0.60;;;;;;;38.97;nan;101400.94;5029210;28;20083;-67
2022/07/17 09:51:15;;;;;;;1.05;0.55;;;;;;;39.25;nan;101401.47;5029402;28;20072;-67
2022/07/17 09:53:45;;;;;;;1.42;0.70;;;;;;;39.36;nan;101401.19;5012793;28;20076;-67
2022/07/17 09:56:14;;;;;;;0.93;0.60;;;;;;;39.59;nan;101404.56;5027610;28;20407;-68
2022/07/17 09:58:44;;;;;;;1.85;0.80;;;;;;;39.69;nan;101407.81;5028242;28;20033;-68
2022/07/17 10:01:10;;;;;;;1.92;0.70;;;;;;;39.73;nan;101410.72;5028626;28;20490;-68
2022/07/17 10:03:35;;;;;;;2.35;0.60;;;;;;;39.79;nan;101406.66;5028389;28;20109;-67
2022/07/17 10:06:02;;;;;;;1.35;0.73;;;;;;;39.36;nan;101402.00;5028475;28;20053;-68
2022/07/17 10:08:30;;;;;;;1.60;0.70;;;;;;;39.67;nan;101403.75;5028019;28;20492;-68
2022/07/17 10:10:56;;;;;;;1.10;0.63;;;;;;;39.41;nan;101401.81;5020347;28;20068;-68
2022/07/17 10:13:21;;;;;;;1.17;0.60;;;;;;;40.02;nan;101400.91;5028439;28;20498;-68
2022/07/17 10:15:46;;;;;;;2.05;0.95;;;;;;;39.59;nan;101396.25;5027347;28;20047;-68
2022/07/17 10:18:12;;;;;;;1.58;0.70;;;;;;;39.72;nan;101392.50;5027332;28;20072;-68
2022/07/17 10:20:37;;;;;;;1.75;0.80;;;;;;;39.89;nan;101389.72;5027873;28;20041;-68
2022/07/17 10:23:15;;;;;;;2.20;0.80;;;;;;;39.69;nan;101395.94;5026716;28;20036;-68
2022/07/17 10:25:40;;;;;;;2.05;0.90;;;;;;;39.65;nan;101397.72;5025264;28;20291;-68
2022/07/17 10:28:07;;;;;;;2.42;0.63;;;;;;;39.99;nan;101394.09;5023635;28;20033;-68
2022/07/17 10:30:33;;;;;;;1.88;0.85;;;;;;;40.00;nan;101397.66;5026602;28;20039;-68
2022/07/17 10:33:05;;;;;;;1.50;0.70;;;;;;;40.30;nan;101393.03;5025513;28;20082;-68
2022/07/17 10:35:41;;;;;;;;;;;;;;;40.96;nan;101392.50;5026650;28;20440;-68
2022/07/17 10:38:14;;;;;;;1.77;0.80;;;;;;;40.34;nan;101393.97;5024496;28;19924;-68
2022/07/17 10:40:41;;;;;;;1.13;0.70;;;;;;;40.04;nan;101391.13;5025067;28;20036;-68
2022/07/17 10:43:08;;;;;;;0.98;0.70;;;;;;;40.64;nan;101393.97;5023793;28;20029;-67
2022/07/17 10:45:37;;;;;;;1.42;0.68;;;;;;;40.49;nan;101385.09;5026412;28;20037;-68
2022/07/17 10:48:11;;;;;;;1.50;0.63;;;;;;;40.63;nan;101386.81;5010175;28;20489;-68
2022/07/17 10:50:38;;;;;;;1.58;0.60;;;;;;;41.24;nan;101391.97;5026116;28;20038;-68
2022/07/17 10:53:33;;;;;;;1.40;0.65;;;;;;;41.04;nan;101386.06;5024612;28;20526;-68
2022/07/17 10:56:03;;;;;;;2.53;0.77;;;;;;;41.16;nan;101382.56;5021311;28;20567;-68
2022/07/17 10:58:32;;;;;;;1.40;0.70;;;;;;;40.73;nan;101386.44;5024389;28;20037;-68
2022/07/17 11:01:02;;;;;;;2.25;0.70;;;;;;;41.16;nan;101377.81;5022715;28;20037;-68
2022/07/17 11:03:28;;;;;;;1.90;0.85;;;;;;;41.81;nan;101382.91;5026283;28;20033;-67
2022/07/17 11:05:54;;;;;;;1.70;0.90;;;;;;;41.68;nan;101382.09;5024105;28;20037;-67
2022/07/17 11:08:19;;;;;;;0.88;0.50;;;;;;;41.49;nan;101382.59;5025036;28;20139;-68
2022/07/17 11:10:46;;;;;;;1.55;0.80;;;;;;;40.99;nan;101377.13;5019470;28;20468;-67
2022/07/17 11:13:15;;;;;;;2.20;0.80;;;;;;;41.17;nan;101382.22;5005857;28;20218;-67
2022/07/17 11:15:46;;;;;;;2.15;0.90;;;;;;;40.85;nan;101377.41;5017940;28;20397;-67
2022/07/17 11:18:19;;;;;;;1.73;0.80;;;;;;;41.36;nan;101380.94;5006896;28;20057;-68
2022/07/17 11:20:50;;;;;;;2.45;0.70;;;;;;;41.87;nan;101383.53;5020005;28;20116;-67
2022/07/17 11:23:15;;;;;;;2.10;0.55;;;;;;;41.73;nan;101389.41;5017979;28;20106;-67
2022/07/17 11:25:53;;;;;;;1.95;0.80;;;;;;;41.93;nan;101384.91;5015671;28;20120;-67
2022/07/17 11:28:37;;;;;;;2.25;0.70;;;;;;;42.97;nan;101385.53;5011258;28;20033;-68
2022/07/17 11:31:16;;;;;;;1.40;0.70;;;;;;;42.82;nan;101385.09;5003228;28;20093;-67
2022/07/17 11:33:51;;;;;;;1.50;0.70;;;;;;;42.75;nan;101382.06;5020365;28;20045;-68
2022/07/17 11:36:33;;;;;;;3.03;0.98;;;;;;;42.07;nan;101379.06;5022247;28;20084;-68
2022/07/17 11:39:11;;;;;;;1.20;0.70;;;;;;;42.22;nan;101379.19;5008192;28;20034;-68
2022/07/17 11:41:44;;;;;;;2.42;0.90;;;;;;;43.19;nan;101371.06;5020418;28;20046;-68